sensor_id;sensor_type;location;lat;lon;timestamp;P1;durP1;ratioP1;P2;durP2;ratioP2
20287;SDS011;10303;51.960;8.372;2023-04-28T00:02:09;1.00;;;0.80;;
20287;SDS011;10303;51.960;8.372;2023-04-28T00:04:35;1.20;;;0.90;;
20287;SDS011;10303;51.960;8.372;2023-04-28T00:07:02;0.90;;;0.90;;
20287;SDS011;10303;51.960;8.372;2023-04-28T00:09:28;2.50;;;1.30;;
20287;SDS011;10303;51.960;8.372;2023-04-28T00:11:54;1.37;;;1.00;;
20287;SDS011;10303;51.960;8.372;2023-04-28T00:14:20;1.10;;;1.00;;
20287;SDS011;10303;51.960;8.372;2023-04-28T00:16:45;1.37;;;1.00;;
20287;SDS011;10303;51.960;8.372;2023-04-28T00:19:11;1.00;;;0.80;;
20287;SDS011;10303;51.960;8.372;2023-04-28T00:21:37;1.20;;;0.77;;
20287;SDS011;10303;51.960;8.372;2023-04-28T00:24:04;0.97;;;0.70;;
20287;SDS011;10303;51.960;8.372;2023-04-28T00:26:30;0.73;;;0.73;;
20287;SDS011;10303;51.960;8.372;2023-04-28T00:28:56;0.83;;;0.83;;
20287;SDS011;10303;51.960;8.372;2023-04-28T00:31:22;4.60;;;1.10;;
20287;SDS011;10303;51.960;8.372;2023-04-28T00:33:48;1.10;;;0.93;;
20287;SDS011;10303;51.960;8.372;2023-04-28T00:36:14;1.60;;;1.20;;
20287;SDS011;10303;51.960;8.372;2023-04-28T00:38:39;0.90;;;0.90;;
20287;SDS011;10303;51.960;8.372;2023-04-28T00:41:05;1.13;;;1.03;;
20287;SDS011;10303;51.960;8.372;2023-04-28T00:43:44;1.13;;;1.00;;
20287;SDS011;10303;51.960;8.372;2023-04-28T00:46:25;1.07;;;0.97;;
20287;SDS011;10303;51.960;8.372;2023-04-28T00:48:56;1.20;;;1.03;;
20287;SDS011;10303;51.960;8.372;2023-04-28T00:51:23;2.50;;;1.13;;
20287;SDS011;10303;51.960;8.372;2023-04-28T00:53:49;1.27;;;1.17;;
20287;SDS011;10303;51.960;8.372;2023-04-28T00:56:15;1.67;;;1.13;;
20287;SDS011;10303;51.960;8.372;2023-04-28T00:58:41;1.40;;;1.30;;
20287;SDS011;10303;51.960;8.372;2023-04-28T01:01:08;0.70;;;0.60;;
20287;SDS011;10303;51.960;8.372;2023-04-28T01:03:39;1.13;;;0.93;;
20287;SDS011;10303;51.960;8.372;2023-04-28T01:06:07;0.80;;;0.80;;
20287;SDS011;10303;51.960;8.372;2023-04-28T01:08:36;1.53;;;0.90;;
20287;SDS011;10303;51.960;8.372;2023-04-28T01:11:05;2.60;;;1.10;;
20287;SDS011;10303;51.960;8.372;2023-04-28T01:13:54;1.20;;;1.00;;
20287;SDS011;10303;51.960;8.372;2023-04-28T01:16:22;1.43;;;0.97;;
20287;SDS011;10303;51.960;8.372;2023-04-28T01:18:50;0.90;;;0.90;;
20287;SDS011;10303;51.960;8.372;2023-04-28T01:21:26;1.83;;;1.00;;
20287;SDS011;10303;51.960;8.372;2023-04-28T01:23:57;1.20;;;1.10;;
20287;SDS011;10303;51.960;8.372;2023-04-28T01:26:24;1.13;;;1.03;;
20287;SDS011;10303;51.960;8.372;2023-04-28T01:28:50;3.57;;;1.00;;
20287;SDS011;10303;51.960;8.372;2023-04-28T01:31:16;1.20;;;1.10;;
20287;SDS011;10303;51.960;8.372;2023-04-28T01:33:42;2.37;;;1.10;;
20287;SDS011;10303;51.960;8.372;2023-04-28T01:36:08;1.90;;;0.90;;
20287;SDS011;10303;51.960;8.372;2023-04-28T01:38:35;0.90;;;0.80;;
20287;SDS011;10303;51.960;8.372;2023-04-28T01:41:01;1.33;;;1.20;;
20287;SDS011;10303;51.960;8.372;2023-04-28T01:43:27;1.90;;;1.33;;
20287;SDS011;10303;51.960;8.372;2023-04-28T01:45:54;1.03;;;0.97;;
20287;SDS011;10303;51.960;8.372;2023-04-28T01:48:20;1.10;;;1.00;;
20287;SDS011;10303;51.960;8.372;2023-04-28T01:50:46;1.13;;;1.03;;
20287;SDS011;10303;51.960;8.372;2023-04-28T01:53:12;2.27;;;1.30;;
20287;SDS011;10303;51.960;8.372;2023-04-28T01:55:39;2.20;;;1.20;;
20287;SDS011;10303;51.960;8.372;2023-04-28T01:58:05;1.53;;;1.13;;
20287;SDS011;10303;51.960;8.372;2023-04-28T02:00:31;2.47;;;1.20;;
20287;SDS011;10303;51.960;8.372;2023-04-28T02:02:57;1.30;;;1.20;;
20287;SDS011;10303;51.960;8.372;2023-04-28T02:05:23;1.57;;;1.10;;
20287;SDS011;10303;51.960;8.372;2023-04-28T02:07:50;1.60;;;1.20;;
20287;SDS011;10303;51.960;8.372;2023-04-28T02:10:17;1.40;;;1.30;;
20287;SDS011;10303;51.960;8.372;2023-04-28T02:12:43;1.07;;;0.97;;
20287;SDS011;10303;51.960;8.372;2023-04-28T02:15:10;1.40;;;1.10;;
20287;SDS011;10303;51.960;8.372;2023-04-28T02:17:36;1.20;;;1.10;;
20287;SDS011;10303;51.960;8.372;2023-04-28T02:20:01;1.27;;;0.90;;
20287;SDS011;10303;51.960;8.372;2023-04-28T02:22:29;1.67;;;0.90;;
20287;SDS011;10303;51.960;8.372;2023-04-28T02:24:55;3.70;;;1.57;;
20287;SDS011;10303;51.960;8.372;2023-04-28T02:27:21;2.90;;;1.20;;
20287;SDS011;10303;51.960;8.372;2023-04-28T02:29:47;1.70;;;1.60;;
20287;SDS011;10303;51.960;8.372;2023-04-28T02:32:13;3.13;;;1.50;;
20287;SDS011;10303;51.960;8.372;2023-04-28T02:34:39;2.57;;;1.30;;
20287;SDS011;10303;51.960;8.372;2023-04-28T02:37:06;1.70;;;1.60;;
20287;SDS011;10303;51.960;8.372;2023-04-28T02:39:32;1.93;;;1.70;;
20287;SDS011;10303;51.960;8.372;2023-04-28T02:41:58;1.53;;;1.43;;
20287;SDS011;10303;51.960;8.372;2023-04-28T02:44:24;1.40;;;1.30;;
20287;SDS011;10303;51.960;8.372;2023-04-28T02:46:50;7.27;;;1.80;;
20287;SDS011;10303;51.960;8.372;2023-04-28T02:49:16;1.60;;;1.50;;
20287;SDS011;10303;51.960;8.372;2023-04-28T02:51:42;1.67;;;1.30;;
20287;SDS011;10303;51.960;8.372;2023-04-28T02:54:08;1.60;;;1.40;;
20287;SDS011;10303;51.960;8.372;2023-04-28T02:56:34;1.47;;;1.27;;
20287;SDS011;10303;51.960;8.372;2023-04-28T02:59:02;1.53;;;1.33;;
20287;SDS011;10303;51.960;8.372;2023-04-28T03:01:28;1.80;;;1.60;;
20287;SDS011;10303;51.960;8.372;2023-04-28T03:03:54;1.77;;;1.67;;
20287;SDS011;10303;51.960;8.372;2023-04-28T03:06:20;3.00;;;2.70;;
20287;SDS011;10303;51.960;8.372;2023-04-28T03:08:47;1.50;;;1.40;;
20287;SDS011;10303;51.960;8.372;2023-04-28T03:11:13;1.43;;;1.33;;
20287;SDS011;10303;51.960;8.372;2023-04-28T03:13:39;1.67;;;1.50;;
20287;SDS011;10303;51.960;8.372;2023-04-28T03:16:06;2.57;;;1.40;;
20287;SDS011;10303;51.960;8.372;2023-04-28T03:18:32;1.30;;;1.20;;
20287;SDS011;10303;51.960;8.372;2023-04-28T03:20:58;3.43;;;1.60;;
20287;SDS011;10303;51.960;8.372;2023-04-28T03:23:26;2.00;;;1.80;;
20287;SDS011;10303;51.960;8.372;2023-04-28T03:25:52;1.83;;;1.73;;
20287;SDS011;10303;51.960;8.372;2023-04-28T03:28:18;1.93;;;1.70;;
20287;SDS011;10303;51.960;8.372;2023-04-28T03:30:44;1.40;;;1.30;;
20287;SDS011;10303;51.960;8.372;2023-04-28T03:33:10;1.80;;;1.70;;
20287;SDS011;10303;51.960;8.372;2023-04-28T03:35:36;1.77;;;1.30;;
20287;SDS011;10303;51.960;8.372;2023-04-28T03:38:02;1.90;;;1.30;;
20287;SDS011;10303;51.960;8.372;2023-04-28T03:40:29;1.63;;;1.47;;
20287;SDS011;10303;51.960;8.372;2023-04-28T03:43:10;1.80;;;1.70;;
20287;SDS011;10303;51.960;8.372;2023-04-28T03:45:41;1.53;;;1.43;;
20287;SDS011;10303;51.960;8.372;2023-04-28T03:48:07;2.03;;;1.73;;
20287;SDS011;10303;51.960;8.372;2023-04-28T03:50:33;1.70;;;1.60;;
20287;SDS011;10303;51.960;8.372;2023-04-28T03:52:59;4.67;;;2.30;;
20287;SDS011;10303;51.960;8.372;2023-04-28T03:55:26;3.53;;;1.87;;
20287;SDS011;10303;51.960;8.372;2023-04-28T03:57:52;3.20;;;2.00;;
20287;SDS011;10303;51.960;8.372;2023-04-28T04:00:18;2.10;;;1.90;;
20287;SDS011;10303;51.960;8.372;2023-04-28T04:02:46;3.00;;;1.60;;
20287;SDS011;10303;51.960;8.372;2023-04-28T04:05:14;2.27;;;1.80;;
20287;SDS011;10303;51.960;8.372;2023-04-28T04:07:40;3.37;;;2.60;;
20287;SDS011;10303;51.960;8.372;2023-04-28T04:10:06;1.90;;;1.67;;
20287;SDS011;10303;51.960;8.372;2023-04-28T04:12:35;2.37;;;1.67;;
20287;SDS011;10303;51.960;8.372;2023-04-28T04:15:02;2.50;;;2.10;;
20287;SDS011;10303;51.960;8.372;2023-04-28T04:17:29;2.30;;;1.47;;
20287;SDS011;10303;51.960;8.372;2023-04-28T04:19:55;2.30;;;2.10;;
20287;SDS011;10303;51.960;8.372;2023-04-28T04:22:22;2.33;;;1.60;;
20287;SDS011;10303;51.960;8.372;2023-04-28T04:24:49;1.33;;;1.23;;
20287;SDS011;10303;51.960;8.372;2023-04-28T04:27:15;2.00;;;1.30;;
20287;SDS011;10303;51.960;8.372;2023-04-28T04:29:41;1.53;;;1.43;;
20287;SDS011;10303;51.960;8.372;2023-04-28T04:32:11;1.80;;;1.70;;
20287;SDS011;10303;51.960;8.372;2023-04-28T04:34:38;3.73;;;1.97;;
20287;SDS011;10303;51.960;8.372;2023-04-28T04:37:04;4.17;;;2.20;;
20287;SDS011;10303;51.960;8.372;2023-04-28T04:39:30;1.90;;;1.80;;
20287;SDS011;10303;51.960;8.372;2023-04-28T04:41:57;2.40;;;1.83;;
20287;SDS011;10303;51.960;8.372;2023-04-28T04:44:44;2.13;;;1.73;;
20287;SDS011;10303;51.960;8.372;2023-04-28T04:47:20;3.50;;;1.93;;
20287;SDS011;10303;51.960;8.372;2023-04-28T04:49:47;2.53;;;2.10;;
20287;SDS011;10303;51.960;8.372;2023-04-28T04:52:17;1.87;;;1.77;;
20287;SDS011;10303;51.960;8.372;2023-04-28T04:54:44;1.73;;;1.63;;
20287;SDS011;10303;51.960;8.372;2023-04-28T04:57:11;2.10;;;1.57;;
20287;SDS011;10303;51.960;8.372;2023-04-28T04:59:58;2.33;;;2.13;;
20287;SDS011;10303;51.960;8.372;2023-04-28T05:02:24;2.37;;;1.87;;
20287;SDS011;10303;51.960;8.372;2023-04-28T05:04:51;2.27;;;2.07;;
20287;SDS011;10303;51.960;8.372;2023-04-28T05:07:17;2.53;;;2.03;;
20287;SDS011;10303;51.960;8.372;2023-04-28T05:09:43;2.00;;;1.80;;
20287;SDS011;10303;51.960;8.372;2023-04-28T05:12:10;6.40;;;3.03;;
20287;SDS011;10303;51.960;8.372;2023-04-28T05:14:36;2.60;;;2.13;;
20287;SDS011;10303;51.960;8.372;2023-04-28T05:17:02;3.63;;;1.87;;
20287;SDS011;10303;51.960;8.372;2023-04-28T05:19:35;2.10;;;1.63;;
20287;SDS011;10303;51.960;8.372;2023-04-28T05:22:02;2.00;;;1.80;;
20287;SDS011;10303;51.960;8.372;2023-04-28T05:24:28;2.20;;;1.83;;
20287;SDS011;10303;51.960;8.372;2023-04-28T05:26:55;1.97;;;1.83;;
20287;SDS011;10303;51.960;8.372;2023-04-28T05:29:23;2.53;;;2.33;;
20287;SDS011;10303;51.960;8.372;2023-04-28T05:31:49;2.73;;;1.90;;
20287;SDS011;10303;51.960;8.372;2023-04-28T05:34:16;2.40;;;2.00;;
20287;SDS011;10303;51.960;8.372;2023-04-28T05:36:42;4.87;;;1.97;;
20287;SDS011;10303;51.960;8.372;2023-04-28T05:39:10;3.40;;;2.30;;
20287;SDS011;10303;51.960;8.372;2023-04-28T05:41:38;2.43;;;2.20;;
20287;SDS011;10303;51.960;8.372;2023-04-28T05:44:04;1.77;;;1.57;;
20287;SDS011;10303;51.960;8.372;2023-04-28T05:46:31;1.53;;;1.43;;
20287;SDS011;10303;51.960;8.372;2023-04-28T05:48:58;2.83;;;1.80;;
20287;SDS011;10303;51.960;8.372;2023-04-28T05:51:27;5.60;;;1.90;;
20287;SDS011;10303;51.960;8.372;2023-04-28T05:53:53;3.10;;;1.67;;
20287;SDS011;10303;51.960;8.372;2023-04-28T05:56:19;2.30;;;2.03;;
20287;SDS011;10303;51.960;8.372;2023-04-28T05:58:46;2.23;;;2.07;;
20287;SDS011;10303;51.960;8.372;2023-04-28T06:01:14;4.00;;;2.00;;
20287;SDS011;10303;51.960;8.372;2023-04-28T06:03:41;3.77;;;2.50;;
20287;SDS011;10303;51.960;8.372;2023-04-28T06:06:07;2.73;;;2.00;;
20287;SDS011;10303;51.960;8.372;2023-04-28T06:08:35;4.80;;;2.30;;
20287;SDS011;10303;51.960;8.372;2023-04-28T06:11:03;2.80;;;2.50;;
20287;SDS011;10303;51.960;8.372;2023-04-28T06:13:30;3.40;;;2.63;;
20287;SDS011;10303;51.960;8.372;2023-04-28T06:15:57;4.30;;;2.83;;
20287;SDS011;10303;51.960;8.372;2023-04-28T06:18:23;4.03;;;3.50;;
20287;SDS011;10303;51.960;8.372;2023-04-28T06:20:49;3.70;;;2.40;;
20287;SDS011;10303;51.960;8.372;2023-04-28T06:23:15;2.67;;;2.47;;
20287;SDS011;10303;51.960;8.372;2023-04-28T06:25:44;3.27;;;2.97;;
20287;SDS011;10303;51.960;8.372;2023-04-28T06:28:10;3.07;;;2.40;;
20287;SDS011;10303;51.960;8.372;2023-04-28T06:30:37;2.60;;;2.40;;
20287;SDS011;10303;51.960;8.372;2023-04-28T06:33:03;3.10;;;2.43;;
20287;SDS011;10303;51.960;8.372;2023-04-28T06:35:29;2.90;;;2.60;;
20287;SDS011;10303;51.960;8.372;2023-04-28T06:37:55;2.67;;;2.30;;
20287;SDS011;10303;51.960;8.372;2023-04-28T06:40:21;2.67;;;2.40;;
20287;SDS011;10303;51.960;8.372;2023-04-28T06:42:54;2.97;;;2.50;;
20287;SDS011;10303;51.960;8.372;2023-04-28T06:45:27;4.27;;;2.27;;
20287;SDS011;10303;51.960;8.372;2023-04-28T06:47:55;2.57;;;2.23;;
20287;SDS011;10303;51.960;8.372;2023-04-28T06:50:22;3.50;;;2.97;;
20287;SDS011;10303;51.960;8.372;2023-04-28T06:52:48;2.70;;;2.50;;
20287;SDS011;10303;51.960;8.372;2023-04-28T06:55:14;2.30;;;2.10;;
20287;SDS011;10303;51.960;8.372;2023-04-28T06:57:41;2.77;;;2.57;;
20287;SDS011;10303;51.960;8.372;2023-04-28T07:00:09;3.73;;;3.33;;
20287;SDS011;10303;51.960;8.372;2023-04-28T07:02:36;3.10;;;2.80;;
20287;SDS011;10303;51.960;8.372;2023-04-28T07:05:02;3.37;;;2.30;;
20287;SDS011;10303;51.960;8.372;2023-04-28T07:07:29;2.60;;;1.87;;
20287;SDS011;10303;51.960;8.372;2023-04-28T07:09:55;2.97;;;2.50;;
20287;SDS011;10303;51.960;8.372;2023-04-28T07:12:23;4.53;;;2.37;;
20287;SDS011;10303;51.960;8.372;2023-04-28T07:14:49;3.27;;;2.87;;
20287;SDS011;10303;51.960;8.372;2023-04-28T07:17:15;3.27;;;2.97;;
20287;SDS011;10303;51.960;8.372;2023-04-28T07:19:41;4.87;;;3.03;;
20287;SDS011;10303;51.960;8.372;2023-04-28T07:22:07;2.67;;;2.40;;
20287;SDS011;10303;51.960;8.372;2023-04-28T07:24:33;3.17;;;2.87;;
20287;SDS011;10303;51.960;8.372;2023-04-28T07:27:00;2.43;;;1.93;;
20287;SDS011;10303;51.960;8.372;2023-04-28T07:29:27;4.27;;;2.17;;
20287;SDS011;10303;51.960;8.372;2023-04-28T07:31:58;1.67;;;1.57;;
20287;SDS011;10303;51.960;8.372;2023-04-28T07:34:26;2.60;;;2.07;;
20287;SDS011;10303;51.960;8.372;2023-04-28T07:36:52;2.90;;;2.37;;
20287;SDS011;10303;51.960;8.372;2023-04-28T07:39:18;2.47;;;2.23;;
20287;SDS011;10303;51.960;8.372;2023-04-28T07:41:44;2.03;;;1.93;;
20287;SDS011;10303;51.960;8.372;2023-04-28T07:44:11;2.87;;;2.67;;
20287;SDS011;10303;51.960;8.372;2023-04-28T07:46:37;2.70;;;2.50;;
20287;SDS011;10303;51.960;8.372;2023-04-28T07:49:03;2.60;;;2.40;;
20287;SDS011;10303;51.960;8.372;2023-04-28T07:51:29;3.33;;;3.03;;
20287;SDS011;10303;51.960;8.372;2023-04-28T07:53:55;2.40;;;2.20;;
20287;SDS011;10303;51.960;8.372;2023-04-28T07:56:21;4.07;;;1.97;;
20287;SDS011;10303;51.960;8.372;2023-04-28T07:58:48;3.67;;;3.00;;
20287;SDS011;10303;51.960;8.372;2023-04-28T08:01:15;2.93;;;2.73;;
20287;SDS011;10303;51.960;8.372;2023-04-28T08:03:41;3.10;;;2.57;;
20287;SDS011;10303;51.960;8.372;2023-04-28T08:06:07;3.83;;;3.00;;
20287;SDS011;10303;51.960;8.372;2023-04-28T08:08:33;4.53;;;3.07;;
20287;SDS011;10303;51.960;8.372;2023-04-28T08:11:00;3.30;;;2.50;;
20287;SDS011;10303;51.960;8.372;2023-04-28T08:13:26;2.80;;;2.60;;
20287;SDS011;10303;51.960;8.372;2023-04-28T08:15:53;3.70;;;2.27;;
20287;SDS011;10303;51.960;8.372;2023-04-28T08:18:24;4.43;;;3.40;;
20287;SDS011;10303;51.960;8.372;2023-04-28T08:20:51;4.90;;;3.30;;
20287;SDS011;10303;51.960;8.372;2023-04-28T08:23:18;2.80;;;2.60;;
20287;SDS011;10303;51.960;8.372;2023-04-28T08:25:44;3.50;;;3.20;;
20287;SDS011;10303;51.960;8.372;2023-04-28T08:28:11;2.97;;;2.67;;
20287;SDS011;10303;51.960;8.372;2023-04-28T08:30:38;3.10;;;2.43;;
20287;SDS011;10303;51.960;8.372;2023-04-28T08:33:04;3.13;;;2.83;;
20287;SDS011;10303;51.960;8.372;2023-04-28T08:35:30;2.93;;;2.73;;
20287;SDS011;10303;51.960;8.372;2023-04-28T08:37:56;2.97;;;2.73;;
20287;SDS011;10303;51.960;8.372;2023-04-28T08:40:22;4.70;;;2.97;;
20287;SDS011;10303;51.960;8.372;2023-04-28T08:42:49;3.90;;;2.53;;
20287;SDS011;10303;51.960;8.372;2023-04-28T08:45:15;3.80;;;3.50;;
20287;SDS011;10303;51.960;8.372;2023-04-28T08:47:41;3.00;;;2.70;;
20287;SDS011;10303;51.960;8.372;2023-04-28T08:50:12;2.97;;;2.77;;
20287;SDS011;10303;51.960;8.372;2023-04-28T08:52:39;3.60;;;3.30;;
20287;SDS011;10303;51.960;8.372;2023-04-28T08:55:08;4.80;;;2.83;;
20287;SDS011;10303;51.960;8.372;2023-04-28T08:57:47;2.40;;;2.20;;
20287;SDS011;10303;51.960;8.372;2023-04-28T09:00:15;3.70;;;2.57;;
20287;SDS011;10303;51.960;8.372;2023-04-28T09:02:42;5.70;;;4.63;;
20287;SDS011;10303;51.960;8.372;2023-04-28T09:05:08;5.97;;;3.97;;
20287;SDS011;10303;51.960;8.372;2023-04-28T09:07:36;4.70;;;3.10;;
20287;SDS011;10303;51.960;8.372;2023-04-28T09:12:41;3.20;;;2.80;;
20287;SDS011;10303;51.960;8.372;2023-04-28T09:15:07;4.83;;;3.17;;
20287;SDS011;10303;51.960;8.372;2023-04-28T09:17:47;6.70;;;3.77;;
20287;SDS011;10303;51.960;8.372;2023-04-28T09:20:20;3.37;;;3.13;;
20287;SDS011;10303;51.960;8.372;2023-04-28T09:22:55;2.57;;;2.40;;
20287;SDS011;10303;51.960;8.372;2023-04-28T09:25:59;3.63;;;3.33;;
20287;SDS011;10303;51.960;8.372;2023-04-28T09:28:32;2.47;;;2.23;;
20287;SDS011;10303;51.960;8.372;2023-04-28T09:31:00;2.57;;;2.37;;
20287;SDS011;10303;51.960;8.372;2023-04-28T09:33:27;3.50;;;3.20;;
20287;SDS011;10303;51.960;8.372;2023-04-28T09:35:53;3.27;;;3.00;;
20287;SDS011;10303;51.960;8.372;2023-04-28T09:38:20;2.70;;;2.50;;
20287;SDS011;10303;51.960;8.372;2023-04-28T09:45:59;6.17;;;3.47;;
20287;SDS011;10303;51.960;8.372;2023-04-28T09:48:28;3.70;;;3.40;;
20287;SDS011;10303;51.960;8.372;2023-04-28T09:51:00;3.40;;;3.10;;
20287;SDS011;10303;51.960;8.372;2023-04-28T09:53:30;2.83;;;2.63;;
20287;SDS011;10303;51.960;8.372;2023-04-28T09:55:58;3.63;;;3.00;;
20287;SDS011;10303;51.960;8.372;2023-04-28T09:58:28;2.83;;;2.23;;
20287;SDS011;10303;51.960;8.372;2023-04-28T10:00:57;3.10;;;2.80;;
20287;SDS011;10303;51.960;8.372;2023-04-28T10:03:25;4.23;;;3.83;;
20287;SDS011;10303;51.960;8.372;2023-04-28T10:05:56;3.77;;;3.17;;
20287;SDS011;10303;51.960;8.372;2023-04-28T10:08:23;3.03;;;2.77;;
20287;SDS011;10303;51.960;8.372;2023-04-28T10:10:51;4.80;;;2.90;;
20287;SDS011;10303;51.960;8.372;2023-04-28T10:13:19;4.60;;;3.00;;
20287;SDS011;10303;51.960;8.372;2023-04-28T10:15:47;4.13;;;3.27;;
20287;SDS011;10303;51.960;8.372;2023-04-28T10:18:21;4.63;;;3.60;;
20287;SDS011;10303;51.960;8.372;2023-04-28T10:20:49;3.40;;;3.10;;
20287;SDS011;10303;51.960;8.372;2023-04-28T10:29:32;7.07;;;3.67;;
20287;SDS011;10303;51.960;8.372;2023-04-28T10:32:21;3.97;;;3.43;;
20287;SDS011;10303;51.960;8.372;2023-04-28T10:34:50;4.70;;;2.80;;
20287;SDS011;10303;51.960;8.372;2023-04-28T10:37:16;2.30;;;2.10;;
20287;SDS011;10303;51.960;8.372;2023-04-28T10:42:59;2.80;;;2.60;;
20287;SDS011;10303;51.960;8.372;2023-04-28T10:48:18;2.97;;;2.77;;
20287;SDS011;10303;51.960;8.372;2023-04-28T10:58:46;3.20;;;2.63;;
20287;SDS011;10303;51.960;8.372;2023-04-28T11:06:21;3.97;;;3.67;;
20287;SDS011;10303;51.960;8.372;2023-04-28T11:08:57;2.70;;;2.50;;
20287;SDS011;10303;51.960;8.372;2023-04-28T11:11:28;2.23;;;2.10;;
20287;SDS011;10303;51.960;8.372;2023-04-28T11:16:56;3.53;;;3.23;;
20287;SDS011;10303;51.960;8.372;2023-04-28T11:19:36;3.00;;;2.73;;
20287;SDS011;10303;51.960;8.372;2023-04-28T11:22:19;2.67;;;2.47;;
20287;SDS011;10303;51.960;8.372;2023-04-28T11:24:54;3.93;;;3.63;;
20287;SDS011;10303;51.960;8.372;2023-04-28T11:27:25;3.20;;;2.93;;
20287;SDS011;10303;51.960;8.372;2023-04-28T11:29:54;2.90;;;2.70;;
20287;SDS011;10303;51.960;8.372;2023-04-28T11:32:30;3.00;;;2.70;;
20287;SDS011;10303;51.960;8.372;2023-04-28T11:35:00;3.87;;;3.57;;
20287;SDS011;10303;51.960;8.372;2023-04-28T11:37:28;2.50;;;2.33;;
20287;SDS011;10303;51.960;8.372;2023-04-28T11:39:54;3.40;;;2.80;;
20287;SDS011;10303;51.960;8.372;2023-04-28T11:42:21;3.87;;;2.90;;
20287;SDS011;10303;51.960;8.372;2023-04-28T11:44:50;4.40;;;3.90;;
20287;SDS011;10303;51.960;8.372;2023-04-28T11:47:28;2.83;;;2.63;;
20287;SDS011;10303;51.960;8.372;2023-04-28T11:49:56;3.77;;;3.40;;
20287;SDS011;10303;51.960;8.372;2023-04-28T11:52:23;3.47;;;3.03;;
20287;SDS011;10303;51.960;8.372;2023-04-28T11:54:52;4.57;;;3.90;;
20287;SDS011;10303;51.960;8.372;2023-04-28T11:57:20;3.33;;;3.07;;
20287;SDS011;10303;51.960;8.372;2023-04-28T11:59:47;4.03;;;3.50;;
20287;SDS011;10303;51.960;8.372;2023-04-28T12:02:14;4.93;;;3.63;;
20287;SDS011;10303;51.960;8.372;2023-04-28T12:04:42;4.17;;;3.77;;
20287;SDS011;10303;51.960;8.372;2023-04-28T12:07:12;4.83;;;3.87;;
20287;SDS011;10303;51.960;8.372;2023-04-28T12:09:43;3.47;;;3.17;;
20287;SDS011;10303;51.960;8.372;2023-04-28T12:12:33;2.93;;;2.70;;
20287;SDS011;10303;51.960;8.372;2023-04-28T12:15:00;4.23;;;3.77;;
20287;SDS011;10303;51.960;8.372;2023-04-28T12:17:41;3.60;;;3.30;;
20287;SDS011;10303;51.960;8.372;2023-04-28T12:20:11;3.53;;;3.30;;
20287;SDS011;10303;51.960;8.372;2023-04-28T12:22:59;4.90;;;4.20;;
20287;SDS011;10303;51.960;8.372;2023-04-28T12:25:27;3.30;;;3.00;;
20287;SDS011;10303;51.960;8.372;2023-04-28T12:28:00;3.80;;;3.47;;
20287;SDS011;10303;51.960;8.372;2023-04-28T12:30:33;4.27;;;3.97;;
20287;SDS011;10303;51.960;8.372;2023-04-28T12:33:20;3.80;;;3.27;;
20287;SDS011;10303;51.960;8.372;2023-04-28T12:35:51;2.80;;;2.60;;
20287;SDS011;10303;51.960;8.372;2023-04-28T12:38:19;7.27;;;4.67;;
20287;SDS011;10303;51.960;8.372;2023-04-28T12:40:45;5.63;;;4.47;;
20287;SDS011;10303;51.960;8.372;2023-04-28T12:43:11;4.73;;;4.33;;
20287;SDS011;10303;51.960;8.372;2023-04-28T12:45:37;4.07;;;2.83;;
20287;SDS011;10303;51.960;8.372;2023-04-28T12:48:04;2.73;;;2.53;;
20287;SDS011;10303;51.960;8.372;2023-04-28T12:50:30;4.30;;;3.90;;
20287;SDS011;10303;51.960;8.372;2023-04-28T12:52:57;4.63;;;3.37;;
20287;SDS011;10303;51.960;8.372;2023-04-28T12:55:24;3.53;;;3.23;;
20287;SDS011;10303;51.960;8.372;2023-04-28T12:57:51;5.70;;;4.53;;
20287;SDS011;10303;51.960;8.372;2023-04-28T13:00:17;3.10;;;2.90;;
20287;SDS011;10303;51.960;8.372;2023-04-28T13:02:47;2.87;;;2.67;;
20287;SDS011;10303;51.960;8.372;2023-04-28T13:05:13;2.93;;;2.73;;
20287;SDS011;10303;51.960;8.372;2023-04-28T13:07:40;3.20;;;3.00;;
20287;SDS011;10303;51.960;8.372;2023-04-28T13:10:06;3.83;;;3.57;;
20287;SDS011;10303;51.960;8.372;2023-04-28T13:12:33;4.40;;;3.43;;
20287;SDS011;10303;51.960;8.372;2023-04-28T13:15:02;3.87;;;3.57;;
20287;SDS011;10303;51.960;8.372;2023-04-28T13:17:28;5.83;;;3.70;;
20287;SDS011;10303;51.960;8.372;2023-04-28T13:19:55;3.53;;;3.33;;
20287;SDS011;10303;51.960;8.372;2023-04-28T13:22:21;2.93;;;2.73;;
20287;SDS011;10303;51.960;8.372;2023-04-28T13:24:47;3.50;;;3.30;;
20287;SDS011;10303;51.960;8.372;2023-04-28T13:27:13;2.67;;;2.53;;
20287;SDS011;10303;51.960;8.372;2023-04-28T13:29:39;3.70;;;3.40;;
20287;SDS011;10303;51.960;8.372;2023-04-28T13:32:05;3.83;;;3.50;;
20287;SDS011;10303;51.960;8.372;2023-04-28T13:34:31;4.37;;;4.07;;
20287;SDS011;10303;51.960;8.372;2023-04-28T13:36:57;3.90;;;3.60;;
20287;SDS011;10303;51.960;8.372;2023-04-28T13:39:23;3.43;;;3.13;;
20287;SDS011;10303;51.960;8.372;2023-04-28T13:41:49;4.03;;;3.20;;
20287;SDS011;10303;51.960;8.372;2023-04-28T13:44:15;3.53;;;3.20;;
20287;SDS011;10303;51.960;8.372;2023-04-28T13:46:42;3.23;;;3.03;;
20287;SDS011;10303;51.960;8.372;2023-04-28T13:49:08;3.57;;;3.33;;
20287;SDS011;10303;51.960;8.372;2023-04-28T13:51:34;3.57;;;3.27;;
20287;SDS011;10303;51.960;8.372;2023-04-28T13:54:01;3.67;;;3.37;;
20287;SDS011;10303;51.960;8.372;2023-04-28T13:56:31;4.50;;;4.10;;
20287;SDS011;10303;51.960;8.372;2023-04-28T13:58:57;4.87;;;4.37;;
20287;SDS011;10303;51.960;8.372;2023-04-28T14:01:23;4.23;;;3.83;;
20287;SDS011;10303;51.960;8.372;2023-04-28T14:03:49;3.70;;;3.40;;
20287;SDS011;10303;51.960;8.372;2023-04-28T14:06:15;3.57;;;3.30;;
20287;SDS011;10303;51.960;8.372;2023-04-28T14:08:41;3.43;;;3.17;;
20287;SDS011;10303;51.960;8.372;2023-04-28T14:11:07;4.50;;;4.07;;
20287;SDS011;10303;51.960;8.372;2023-04-28T14:13:33;3.77;;;3.37;;
20287;SDS011;10303;51.960;8.372;2023-04-28T14:16:00;4.90;;;3.77;;
20287;SDS011;10303;51.960;8.372;2023-04-28T14:18:26;3.37;;;3.07;;
20287;SDS011;10303;51.960;8.372;2023-04-28T14:20:53;4.00;;;3.70;;
20287;SDS011;10303;51.960;8.372;2023-04-28T14:23:20;5.43;;;4.87;;
20287;SDS011;10303;51.960;8.372;2023-04-28T14:25:47;4.27;;;3.90;;
20287;SDS011;10303;51.960;8.372;2023-04-28T14:28:13;2.90;;;2.70;;
20287;SDS011;10303;51.960;8.372;2023-04-28T14:30:39;3.87;;;3.27;;
20287;SDS011;10303;51.960;8.372;2023-04-28T14:33:05;5.27;;;4.87;;
20287;SDS011;10303;51.960;8.372;2023-04-28T14:35:32;4.10;;;3.80;;
20287;SDS011;10303;51.960;8.372;2023-04-28T14:37:59;4.60;;;4.13;;
20287;SDS011;10303;51.960;8.372;2023-04-28T14:40:25;5.30;;;4.43;;
20287;SDS011;10303;51.960;8.372;2023-04-28T14:42:51;4.47;;;4.17;;
20287;SDS011;10303;51.960;8.372;2023-04-28T14:45:17;4.00;;;3.60;;
20287;SDS011;10303;51.960;8.372;2023-04-28T14:47:44;3.63;;;3.20;;
20287;SDS011;10303;51.960;8.372;2023-04-28T14:50:10;4.90;;;4.40;;
20287;SDS011;10303;51.960;8.372;2023-04-28T14:52:36;4.33;;;3.97;;
20287;SDS011;10303;51.960;8.372;2023-04-28T14:55:02;3.90;;;3.60;;
20287;SDS011;10303;51.960;8.372;2023-04-28T14:57:29;4.27;;;3.87;;
20287;SDS011;10303;51.960;8.372;2023-04-28T14:59:56;4.70;;;4.00;;
20287;SDS011;10303;51.960;8.372;2023-04-28T15:02:22;4.43;;;4.03;;
20287;SDS011;10303;51.960;8.372;2023-04-28T15:04:56;4.40;;;4.07;;
20287;SDS011;10303;51.960;8.372;2023-04-28T15:07:23;4.20;;;3.80;;
20287;SDS011;10303;51.960;8.372;2023-04-28T15:09:58;2.90;;;2.53;;
20287;SDS011;10303;51.960;8.372;2023-04-28T15:12:25;3.60;;;3.30;;
20287;SDS011;10303;51.960;8.372;2023-04-28T15:14:54;3.20;;;2.90;;
20287;SDS011;10303;51.960;8.372;2023-04-28T15:17:21;4.10;;;3.80;;
20287;SDS011;10303;51.960;8.372;2023-04-28T15:19:47;3.57;;;3.27;;
20287;SDS011;10303;51.960;8.372;2023-04-28T15:22:13;3.83;;;3.20;;
20287;SDS011;10303;51.960;8.372;2023-04-28T15:24:40;3.43;;;3.13;;
20287;SDS011;10303;51.960;8.372;2023-04-28T15:27:06;7.60;;;6.83;;
20287;SDS011;10303;51.960;8.372;2023-04-28T15:29:32;5.87;;;4.40;;